createdAt,value
2023-01-29T00:00:24.158Z,463.00
2023-01-29T00:01:24.162Z,464.00
2023-01-29T00:02:24.183Z,464.00
2023-01-29T00:03:24.169Z,465.00
2023-01-29T00:04:24.161Z,464.00
2023-01-29T00:05:28.506Z,463.00
2023-01-29T00:06:24.138Z,463.00
2023-01-29T00:07:24.160Z,463.00
2023-01-29T00:08:24.153Z,461.00
2023-01-29T00:09:24.156Z,460.00
2023-01-29T00:10:24.169Z,461.00
2023-01-29T00:11:24.151Z,462.00
2023-01-29T00:12:24.150Z,464.00
2023-01-29T00:13:24.164Z,467.00
2023-01-29T00:14:24.147Z,468.00
2023-01-29T00:15:24.133Z,467.00
2023-01-29T00:16:24.259Z,466.00
2023-01-29T00:17:24.175Z,466.00
2023-01-29T00:18:24.141Z,465.00
2023-01-29T00:19:24.166Z,462.00
2023-01-29T00:20:24.153Z,462.00
2023-01-29T00:21:24.172Z,462.00
2023-01-29T00:22:24.147Z,463.00
2023-01-29T00:23:24.175Z,462.00
2023-01-29T00:24:24.262Z,462.00
2023-01-29T00:25:24.147Z,462.00
2023-01-29T00:26:24.200Z,461.00
2023-01-29T00:27:24.232Z,462.00
2023-01-29T00:28:24.292Z,463.00
2023-01-29T00:29:24.317Z,465.00
2023-01-29T00:30:24.356Z,463.00
2023-01-29T00:31:24.499Z,462.00
2023-01-29T00:32:24.549Z,463.00
2023-01-29T00:33:24.530Z,463.00
2023-01-29T00:34:24.579Z,464.00
2023-01-29T00:35:24.577Z,462.00
2023-01-29T00:36:24.646Z,463.00
2023-01-29T00:37:24.721Z,462.00
2023-01-29T00:38:24.754Z,461.00
2023-01-29T00:39:29.406Z,463.00
2023-01-29T00:40:25.806Z,463.00
2023-01-29T00:41:24.769Z,465.00
2023-01-29T00:42:24.756Z,467.00
2023-01-29T00:43:24.751Z,466.00
2023-01-29T00:44:24.757Z,464.00
2023-01-29T00:45:24.741Z,465.00
2023-01-29T00:46:24.800Z,463.00
2023-01-29T00:47:24.763Z,464.00
2023-01-29T00:48:24.757Z,462.00
2023-01-29T00:49:24.756Z,463.00
2023-01-29T00:50:24.763Z,464.00
2023-01-29T00:51:24.745Z,465.00
2023-01-29T00:52:24.814Z,464.00
2023-01-29T00:53:24.840Z,463.00
2023-01-29T00:54:24.874Z,464.00
2023-01-29T00:55:24.952Z,467.00
2023-01-29T00:56:24.987Z,467.00
2023-01-29T00:57:25.031Z,468.00
2023-01-29T00:58:25.079Z,467.00
2023-01-29T00:59:25.148Z,467.00
2023-01-29T01:00:25.223Z,464.00
2023-01-29T01:01:25.248Z,463.00
2023-01-29T01:02:25.399Z,462.00
2023-01-29T01:03:25.353Z,462.00
2023-01-29T01:04:25.458Z,464.00
2023-01-29T01:05:25.454Z,463.00
2023-01-29T01:06:25.543Z,463.00
2023-01-29T01:07:25.574Z,463.00
2023-01-29T01:08:25.648Z,462.00
2023-01-29T01:09:25.707Z,463.00
2023-01-29T01:10:25.745Z,462.00
2023-01-29T01:11:25.843Z,464.00
2023-01-29T01:12:25.891Z,465.00
2023-01-29T01:13:25.991Z,467.00
2023-01-29T01:14:26.003Z,467.00
2023-01-29T01:15:26.064Z,468.00
2023-01-29T01:16:26.208Z,469.00
2023-01-29T01:17:26.121Z,466.00
2023-01-29T01:18:26.198Z,465.00
2023-01-29T01:19:26.243Z,467.00
2023-01-29T01:20:26.307Z,468.00
2023-01-29T01:21:26.385Z,468.00
2023-01-29T01:22:26.441Z,465.00
2023-01-29T01:23:26.448Z,466.00
2023-01-29T01:24:26.527Z,467.00
2023-01-29T01:25:26.607Z,469.00
2023-01-29T01:26:26.627Z,469.00
2023-01-29T01:27:26.725Z,469.00
2023-01-29T01:28:26.746Z,469.00
2023-01-29T01:29:26.803Z,469.00
2023-01-29T01:30:26.825Z,469.00
2023-01-29T01:31:26.997Z,467.00
2023-01-29T01:32:26.905Z,466.00
2023-01-29T01:33:26.950Z,465.00
2023-01-29T01:34:27.067Z,464.00
2023-01-29T01:35:27.076Z,465.00
2023-01-29T01:36:27.141Z,465.00
2023-01-29T01:37:27.177Z,467.00
2023-01-29T01:38:27.237Z,467.00
2023-01-29T01:39:27.284Z,466.00
2023-01-29T01:40:27.356Z,467.00
2023-01-29T01:41:27.384Z,467.00
2023-01-29T01:43:27.497Z,465.00
2023-01-29T01:44:27.577Z,464.00
2023-01-29T01:45:27.636Z,465.00
2023-01-29T01:46:27.693Z,463.00
2023-01-29T01:47:27.758Z,462.00
2023-01-29T01:48:27.815Z,464.00
2023-01-29T01:49:27.827Z,464.00
2023-01-29T01:54:28.098Z,471.00
2023-01-29T01:56:28.227Z,468.00
2023-01-29T01:57:28.287Z,466.00
2023-01-29T01:58:28.320Z,466.00
2023-01-29T01:59:28.397Z,464.00
2023-01-29T02:00:28.388Z,465.00
2023-01-29T02:02:28.633Z,466.00
2023-01-29T02:03:28.577Z,466.00
2023-01-29T02:04:28.654Z,466.00
2023-01-29T02:05:28.703Z,465.00
2023-01-29T02:06:28.744Z,463.00
2023-01-29T02:11:29.060Z,458.00
2023-01-29T02:12:29.112Z,460.00
2023-01-29T02:13:29.163Z,461.00
2023-01-29T02:14:29.215Z,460.00
2023-01-29T02:15:29.248Z,460.00
2023-01-29T02:16:29.272Z,458.00
2023-01-29T02:17:29.427Z,458.00
2023-01-29T02:18:29.396Z,459.00
2023-01-29T02:19:29.409Z,458.00
2023-01-29T02:20:29.447Z,458.00
2023-01-29T02:21:29.497Z,457.00
2023-01-29T02:22:29.637Z,458.00
2023-01-29T02:23:29.764Z,459.00
2023-01-29T02:24:29.704Z,458.00
2023-01-29T02:26:29.804Z,456.00
2023-01-29T02:27:29.852Z,456.00
2023-01-29T02:28:29.873Z,455.00
2023-01-29T02:29:29.933Z,453.00
2023-01-29T02:30:29.972Z,453.00
2023-01-29T02:31:30.052Z,454.00
2023-01-29T02:32:30.057Z,456.00
2023-01-29T02:33:30.113Z,459.00
2023-01-29T02:34:30.180Z,460.00
2023-01-29T02:35:30.225Z,461.00
2023-01-29T02:36:30.262Z,461.00
2023-01-29T02:37:30.298Z,462.00
2023-01-29T02:38:30.446Z,462.00
2023-01-29T02:39:30.417Z,464.00
2023-01-29T02:40:30.427Z,466.00
2023-01-29T02:41:30.470Z,465.00
2023-01-29T02:42:30.543Z,465.00
2023-01-29T02:43:30.583Z,464.00
2023-01-29T02:44:30.608Z,462.00
2023-01-29T02:45:30.682Z,461.00
2023-01-29T02:46:30.708Z,463.00
2023-01-29T02:47:30.769Z,463.00
2023-01-29T02:48:30.815Z,463.00
2023-01-29T02:49:30.875Z,463.00
2023-01-29T02:50:30.947Z,462.00
2023-01-29T02:51:31.007Z,460.00
2023-01-29T02:52:31.095Z,461.00
2023-01-29T02:53:31.059Z,459.00
2023-01-29T02:54:31.129Z,457.00
2023-01-29T02:55:31.178Z,457.00
2023-01-29T03:05:31.758Z,461.00
2023-01-29T03:06:31.798Z,464.00
2023-01-29T03:07:31.843Z,464.00
2023-01-29T03:08:31.883Z,465.00
2023-01-29T03:09:31.995Z,465.00
2023-01-29T03:10:32.001Z,464.00
2023-01-29T03:11:32.043Z,463.00
2023-01-29T03:12:32.101Z,461.00
2023-01-29T03:13:32.196Z,463.00
2023-01-29T03:14:32.230Z,463.00
2023-01-29T03:15:32.297Z,462.00
2023-01-29T03:16:32.403Z,461.00
2023-01-29T03:17:32.419Z,460.00
2023-01-29T03:18:32.459Z,459.00
2023-01-29T03:19:32.488Z,457.00
2023-01-29T03:20:32.578Z,456.00
2023-01-29T03:21:32.631Z,459.00
2023-01-29T03:22:32.707Z,459.00
2023-01-29T03:23:32.764Z,460.00
2023-01-29T03:24:32.809Z,460.00
2023-01-29T03:25:32.876Z,459.00
2023-01-29T03:26:32.931Z,458.00
2023-01-29T03:27:33.037Z,458.00
2023-01-29T03:28:33.077Z,457.00
2023-01-29T03:29:33.114Z,458.00
2023-01-29T03:44:33.982Z,459.00
2023-01-29T03:45:34.053Z,462.00
2023-01-29T06:06:41.721Z,456.00
2023-01-29T06:07:43.707Z,456.00
2023-01-29T06:08:41.831Z,455.00
2023-01-29T06:09:41.880Z,454.00
2023-01-29T06:10:41.939Z,454.00
2023-01-29T06:11:41.998Z,453.00
2023-01-29T06:12:42.035Z,454.00
2023-01-29T06:13:42.070Z,454.00
2023-01-29T06:14:42.157Z,452.00
2023-01-29T06:15:42.183Z,452.00
2023-01-29T06:16:42.230Z,452.00
2023-01-29T06:17:42.333Z,453.00
2023-01-29T06:18:42.360Z,451.00
2023-01-29T06:19:42.395Z,449.00
2023-01-29T06:20:42.439Z,451.00
2023-01-29T06:21:42.511Z,451.00
2023-01-29T06:22:42.529Z,452.00
2023-01-29T06:23:42.596Z,454.00
2023-01-29T06:24:42.620Z,452.00
2023-01-29T06:25:42.669Z,452.00
2023-01-29T06:26:42.711Z,452.00
2023-01-29T06:27:42.786Z,451.00
2023-01-29T06:28:42.806Z,453.00
2023-01-29T06:29:42.859Z,452.00
2023-01-29T06:30:42.981Z,451.00
2023-01-29T06:31:43.057Z,451.00
2023-01-29T06:32:42.990Z,452.00
2023-01-29T06:33:43.054Z,452.00
2023-01-29T06:34:43.074Z,454.00
2023-01-29T06:35:43.109Z,453.00
2023-01-29T06:36:43.143Z,453.00
2023-01-29T06:37:43.209Z,453.00
2023-01-29T06:38:43.244Z,454.00
2023-01-29T06:39:43.316Z,454.00
2023-01-29T06:40:43.326Z,455.00
2023-01-29T06:41:43.365Z,453.00
2023-01-29T06:42:46.035Z,451.00
2023-01-29T06:43:43.407Z,452.00
2023-01-29T06:44:43.408Z,449.00
2023-01-29T06:45:43.431Z,450.00
2023-01-29T06:46:43.396Z,450.00
2023-01-29T06:47:43.430Z,448.00
2023-01-29T06:48:43.415Z,447.00
2023-01-29T06:49:43.381Z,446.00
2023-01-29T06:50:43.445Z,447.00
2023-01-29T06:51:43.402Z,448.00
2023-01-29T06:52:43.411Z,450.00
2023-01-29T06:53:45.783Z,451.00
2023-01-29T06:54:43.378Z,452.00
2023-01-29T06:55:43.431Z,452.00
2023-01-29T06:56:43.420Z,454.00
2023-01-29T06:57:43.397Z,453.00
2023-01-29T06:58:43.411Z,455.00
2023-01-29T06:59:43.402Z,455.00
2023-01-29T07:00:43.472Z,452.00
2023-01-29T07:01:43.524Z,450.00
2023-01-29T07:02:43.422Z,448.00
2023-01-29T07:03:43.445Z,446.00
2023-01-29T07:04:43.459Z,446.00
2023-01-29T07:05:43.408Z,445.00
2023-01-29T07:06:43.427Z,446.00
2023-01-29T07:07:43.446Z,448.00
2023-01-29T07:08:43.438Z,448.00
2023-01-29T07:09:43.427Z,449.00
2023-01-29T07:10:43.436Z,450.00
2023-01-29T07:11:43.455Z,450.00
2023-01-29T07:12:43.461Z,451.00
2023-01-29T07:13:43.569Z,451.00
2023-01-29T07:14:43.407Z,451.00
2023-01-29T07:15:43.414Z,451.00
2023-01-29T07:16:43.470Z,449.00
2023-01-29T07:17:43.438Z,450.00
2023-01-29T07:18:43.418Z,449.00
2023-01-29T07:19:43.414Z,447.00
2023-01-29T07:20:43.437Z,447.00
2023-01-29T07:21:43.461Z,446.00
2023-01-29T07:22:43.440Z,449.00
2023-01-29T07:23:43.421Z,451.00
2023-01-29T07:24:43.404Z,451.00
2023-01-29T07:25:43.440Z,452.00
2023-01-29T07:26:43.421Z,452.00
2023-01-29T07:27:43.587Z,451.00
2023-01-29T07:28:43.427Z,448.00
2023-01-29T07:29:43.427Z,446.00
2023-01-29T07:30:43.385Z,446.00
2023-01-29T07:31:43.562Z,443.00
2023-01-29T07:32:43.428Z,444.00
2023-01-29T07:33:43.413Z,445.00
2023-01-29T07:34:43.416Z,446.00
2023-01-29T07:35:43.425Z,449.00
2023-01-29T07:36:43.426Z,449.00
2023-01-29T07:37:43.455Z,450.00
2023-01-29T07:38:43.423Z,445.00
2023-01-29T07:39:43.436Z,446.00
2023-01-29T07:40:43.408Z,447.00
2023-01-29T07:41:43.407Z,449.00
2023-01-29T07:42:43.447Z,447.00
2023-01-29T07:43:43.422Z,447.00
2023-01-29T07:44:43.438Z,446.00
2023-01-29T07:45:43.435Z,446.00
2023-01-29T07:46:43.412Z,444.00
2023-01-29T07:47:43.423Z,442.00
2023-01-29T07:48:43.428Z,443.00
2023-01-29T07:49:43.442Z,445.00
2023-01-29T07:50:43.448Z,445.00
2023-01-29T07:51:43.490Z,446.00
2023-01-29T07:52:43.536Z,446.00
2023-01-29T07:53:43.596Z,444.00
2023-01-29T07:54:43.632Z,446.00
2023-01-29T07:55:43.660Z,448.00
2023-01-29T07:56:43.739Z,448.00
2023-01-29T07:57:43.797Z,449.00
2023-01-29T07:58:43.824Z,450.00
2023-01-29T07:59:43.878Z,448.00
2023-01-29T08:00:43.887Z,448.00
2023-01-29T08:01:43.955Z,449.00
2023-01-29T08:02:43.990Z,448.00
2023-01-29T08:03:44.026Z,448.00
2023-01-29T08:04:44.071Z,446.00
2023-01-29T08:05:44.107Z,446.00
2023-01-29T08:06:44.146Z,448.00
2023-01-29T08:07:49.241Z,447.00
2023-01-29T08:08:45.154Z,450.00
2023-01-29T08:09:44.163Z,452.00
2023-01-29T08:10:44.147Z,452.00
2023-01-29T08:11:44.158Z,450.00
2023-01-29T08:12:44.172Z,451.00
2023-01-29T08:13:44.173Z,449.00
2023-01-29T08:14:44.145Z,449.00
2023-01-29T08:15:44.181Z,449.00
2023-01-29T08:16:44.235Z,448.00
2023-01-29T08:17:57.279Z,449.00
2023-01-29T08:19:44.202Z,449.00
2023-01-29T08:20:44.180Z,447.00
2023-01-29T08:21:44.221Z,448.00
2023-01-29T08:22:44.218Z,449.00
2023-01-29T08:23:44.242Z,448.00
2023-01-29T08:24:54.155Z,448.00
2023-01-29T08:25:45.228Z,447.00
2023-01-29T08:26:44.204Z,445.00
2023-01-29T08:27:44.633Z,443.00
2023-01-29T08:28:44.213Z,445.00
2023-01-29T08:29:44.227Z,443.00
2023-01-29T08:30:44.254Z,445.00
2023-01-29T08:31:44.261Z,446.00
2023-01-29T08:32:44.227Z,448.00
2023-01-29T08:33:44.240Z,451.00
2023-01-29T08:34:44.233Z,449.00
2023-01-29T08:35:44.208Z,445.00
2023-01-29T08:36:44.276Z,447.00
2023-01-29T08:37:44.326Z,447.00
2023-01-29T08:38:44.373Z,447.00
2023-01-29T08:39:44.429Z,446.00
2023-01-29T08:40:44.484Z,443.00
2023-01-29T08:41:44.561Z,443.00
2023-01-29T08:42:44.577Z,443.00
2023-01-29T08:43:44.639Z,444.00
2023-01-29T08:44:44.694Z,445.00
2023-01-29T08:45:44.741Z,445.00
2023-01-29T08:46:44.790Z,444.00
2023-01-29T08:47:44.847Z,446.00
2023-01-29T08:48:44.928Z,445.00
2023-01-29T08:49:44.910Z,447.00
2023-01-29T08:50:44.973Z,446.00
2023-01-29T08:51:45.010Z,448.00
2023-01-29T08:52:45.092Z,452.00
2023-01-29T08:53:45.118Z,453.00
2023-01-29T08:54:45.196Z,454.00
2023-01-29T08:55:45.226Z,451.00
2023-01-29T08:56:45.287Z,449.00
2023-01-29T08:57:45.312Z,448.00
2023-01-29T08:58:45.387Z,448.00
2023-01-29T08:59:45.434Z,450.00
2023-01-29T09:00:45.496Z,449.00
2023-01-29T09:01:45.544Z,449.00
2023-01-29T09:02:45.735Z,449.00
2023-01-29T09:03:45.674Z,449.00
2023-01-29T09:04:45.704Z,450.00
2023-01-29T09:05:45.771Z,447.00
2023-01-29T09:06:45.831Z,445.00
2023-01-29T09:07:45.867Z,445.00
2023-01-29T09:08:45.937Z,446.00
2023-01-29T09:09:46.006Z,445.00
2023-01-29T09:10:46.049Z,447.00
2023-01-29T09:11:46.062Z,447.00
2023-01-29T09:12:46.140Z,448.00
2023-01-29T09:13:46.161Z,448.00
2023-01-29T09:14:46.213Z,446.00
2023-01-29T09:15:46.296Z,446.00
2023-01-29T09:16:46.402Z,447.00
2023-01-29T09:17:46.404Z,448.00
2023-01-29T09:18:46.470Z,449.00
2023-01-29T09:19:46.506Z,449.00
2023-01-29T09:20:46.542Z,450.00
2023-01-29T09:21:46.576Z,451.00
2023-01-29T09:22:46.639Z,452.00
2023-01-29T09:23:46.687Z,453.00
2023-01-29T09:24:46.711Z,455.00
2023-01-29T09:25:46.773Z,456.00
2023-01-29T09:26:46.828Z,456.00
2023-01-29T09:27:46.864Z,455.00
2023-01-29T09:29:46.943Z,455.00
2023-01-29T09:30:47.100Z,454.00
2023-01-29T09:31:47.183Z,453.00
2023-01-29T09:32:53.731Z,453.00
2023-01-29T09:33:48.093Z,452.00
2023-01-29T09:34:47.073Z,453.00
2023-01-29T09:35:47.107Z,455.00
2023-01-29T09:36:47.086Z,454.00
2023-01-29T11:13:51.740Z,450.00
2023-01-29T11:14:51.770Z,451.00
2023-01-29T11:15:51.850Z,451.00
2023-01-29T11:16:51.985Z,453.00
2023-01-29T11:17:51.972Z,452.00
2023-01-29T11:18:51.977Z,450.00
2023-01-29T11:19:52.054Z,450.00
2023-01-29T11:20:52.088Z,449.00
2023-01-29T11:21:52.158Z,448.00
2023-01-29T11:22:52.196Z,450.00
2023-01-29T11:23:52.269Z,449.00
2023-01-29T11:24:52.308Z,450.00
2023-01-29T11:25:52.369Z,449.00
2023-01-29T11:26:52.436Z,447.00
2023-01-29T11:27:52.489Z,448.00
2023-01-29T11:28:52.508Z,447.00
2023-01-29T11:29:52.568Z,447.00
2023-01-29T11:30:52.728Z,447.00
2023-01-29T11:31:52.714Z,447.00
2023-01-29T11:32:52.735Z,445.00
2023-01-29T11:33:52.801Z,445.00
2023-01-29T11:34:52.851Z,448.00
2023-01-29T11:35:53.032Z,450.00
2023-01-29T11:36:52.917Z,451.00
2023-01-29T11:37:52.953Z,451.00
2023-01-29T11:38:53.011Z,452.00
2023-01-29T11:39:53.044Z,453.00
2023-01-29T11:40:53.076Z,452.00
2023-01-29T11:41:53.148Z,455.00
2023-01-29T11:42:53.201Z,454.00
2023-01-29T11:43:53.250Z,453.00
2023-01-29T11:44:53.329Z,453.00
2023-01-29T11:45:53.383Z,450.00
2023-01-29T11:46:53.402Z,452.00
2023-01-29T11:47:53.439Z,451.00
2023-01-29T11:48:54.799Z,450.00
2023-01-29T11:49:53.533Z,448.00
2023-01-29T11:50:53.529Z,445.00
2023-01-29T11:51:53.515Z,447.00
2023-01-29T11:52:53.508Z,447.00
2023-01-29T11:53:53.509Z,448.00
2023-01-29T11:54:53.519Z,448.00
2023-01-29T11:55:53.493Z,449.00
2023-01-29T11:56:53.497Z,450.00
2023-01-29T11:57:53.500Z,447.00
2023-01-29T11:58:53.520Z,446.00
2023-01-29T11:59:53.528Z,446.00
2023-01-29T12:00:53.500Z,446.00
2023-01-29T12:01:53.514Z,450.00
2023-01-29T12:02:53.533Z,451.00
2023-01-29T12:03:53.573Z,451.00
2023-01-29T12:04:53.525Z,453.00
2023-01-29T12:05:53.520Z,452.00
2023-01-29T12:06:53.536Z,452.00
2023-01-29T12:07:53.542Z,451.00
2023-01-29T12:08:53.550Z,451.00
2023-01-29T12:09:53.559Z,450.00
2023-01-29T12:10:53.533Z,449.00
2023-01-29T12:11:53.561Z,450.00
2023-01-29T12:12:53.552Z,451.00
2023-01-29T12:13:53.542Z,451.00
2023-01-29T12:14:53.565Z,451.00
2023-01-29T12:15:54.867Z,452.00
2023-01-29T12:16:53.541Z,451.00
2023-01-29T12:17:53.578Z,449.00
2023-01-29T12:18:53.555Z,450.00
2023-01-29T12:19:53.581Z,450.00
2023-01-29T12:20:53.586Z,448.00
2023-01-29T12:21:53.582Z,448.00
2023-01-29T12:22:53.605Z,450.00
2023-01-29T12:23:53.571Z,452.00
2023-01-29T12:24:53.585Z,452.00
2023-01-29T12:25:53.574Z,453.00
2023-01-29T12:26:53.590Z,450.00
2023-01-29T12:27:53.595Z,451.00
2023-01-29T12:28:53.587Z,451.00
2023-01-29T12:29:53.595Z,451.00
2023-01-29T12:30:53.654Z,450.00
2023-01-29T12:31:54.248Z,447.00
2023-01-29T12:32:53.606Z,446.00
2023-01-29T12:33:53.629Z,445.00
2023-01-29T12:34:53.646Z,445.00
2023-01-29T12:35:53.607Z,446.00
2023-01-29T12:36:53.617Z,444.00
2023-01-29T12:37:53.590Z,444.00
2023-01-29T12:38:53.653Z,444.00
2023-01-29T12:39:53.657Z,444.00
2023-01-29T12:40:53.741Z,445.00
2023-01-29T12:41:53.790Z,446.00
2023-01-29T12:42:53.854Z,449.00
2023-01-29T12:43:53.914Z,449.00
2023-01-29T12:44:53.961Z,449.00
2023-01-29T12:45:54.010Z,449.00
2023-01-29T12:46:54.127Z,449.00
2023-01-29T12:47:54.100Z,449.00
2023-01-29T12:48:54.134Z,447.00
2023-01-29T12:49:54.217Z,447.00
2023-01-29T12:50:54.265Z,447.00
2023-01-29T12:51:54.325Z,447.00
2023-01-29T12:52:54.371Z,448.00
2023-01-29T12:53:54.403Z,448.00
2023-01-29T12:54:54.521Z,447.00
2023-01-29T12:55:54.580Z,447.00
2023-01-29T12:56:54.591Z,448.00
2023-01-29T12:57:54.671Z,448.00
2023-01-29T12:58:54.706Z,447.00
2023-01-29T12:59:54.771Z,444.00
2023-01-29T13:00:54.894Z,445.00
2023-01-29T13:01:54.920Z,444.00
2023-01-29T13:02:55.006Z,442.00
2023-01-29T13:03:54.997Z,442.00
2023-01-29T13:04:55.071Z,446.00
2023-01-29T13:05:55.105Z,450.00
2023-01-29T13:06:55.176Z,450.00
2023-01-29T13:07:55.207Z,447.00
2023-01-29T13:08:55.297Z,447.00
2023-01-29T13:09:55.328Z,448.00
2023-01-29T13:10:55.376Z,449.00
2023-01-29T13:25:56.228Z,449.00
2023-01-29T13:30:56.499Z,448.00
2023-01-29T13:31:56.560Z,450.00
2023-01-29T13:32:56.577Z,452.00
2023-01-29T13:33:56.650Z,453.00
2023-01-29T13:34:56.702Z,455.00
2023-01-29T13:35:56.707Z,454.00
2023-01-29T13:36:56.825Z,454.00
2023-01-29T13:37:56.820Z,452.00
2023-01-29T13:38:56.858Z,450.00
2023-01-29T13:39:56.953Z,451.00
2023-01-29T13:40:56.985Z,449.00
2023-01-29T13:41:57.014Z,450.00
2023-01-29T13:42:59.957Z,449.00
2023-01-29T13:43:57.063Z,447.00
2023-01-29T13:44:57.128Z,448.00
2023-01-29T13:45:57.183Z,449.00
2023-01-29T13:46:57.131Z,450.00
2023-01-29T13:47:57.128Z,450.00
2023-01-29T13:48:57.103Z,450.00
2023-01-29T13:49:57.140Z,450.00
2023-01-29T13:50:57.119Z,449.00
2023-01-29T13:51:57.131Z,450.00
2023-01-29T13:52:57.134Z,450.00
2023-01-29T13:53:57.135Z,452.00
2023-01-29T13:54:57.174Z,453.00
2023-01-29T13:55:57.173Z,454.00
2023-01-29T13:56:57.183Z,454.00
2023-01-29T13:57:57.219Z,452.00
2023-01-29T13:58:57.198Z,451.00
2023-01-29T13:59:57.259Z,453.00
2023-01-29T14:00:57.282Z,453.00
2023-01-29T14:01:57.227Z,455.00
2023-01-29T14:02:57.254Z,454.00
2023-01-29T14:04:05.621Z,456.00
2023-01-29T14:04:58.289Z,455.00
2023-01-29T14:05:57.294Z,457.00
2023-01-29T14:06:57.314Z,457.00
2023-01-29T14:07:57.332Z,457.00
2023-01-29T14:08:57.318Z,457.00
2023-01-29T14:09:57.350Z,456.00
2023-01-29T14:10:57.326Z,456.00
2023-01-29T14:11:58.269Z,453.00
2023-01-29T14:12:57.343Z,453.00
2023-01-29T14:13:57.347Z,450.00
2023-01-29T14:14:57.349Z,447.00
2023-01-29T14:15:57.439Z,448.00
2023-01-29T14:16:57.488Z,449.00
2023-01-29T14:17:57.532Z,451.00
2023-01-29T14:18:57.619Z,452.00
2023-01-29T14:19:57.663Z,451.00
2023-01-29T14:20:57.744Z,451.00
2023-01-29T14:21:57.770Z,451.00
2023-01-29T14:22:57.842Z,452.00
2023-01-29T14:23:57.922Z,455.00
2023-01-29T14:24:57.951Z,454.00
2023-01-29T14:25:58.016Z,455.00
2023-01-29T14:26:58.052Z,457.00
2023-01-29T14:27:58.126Z,454.00
2023-01-29T14:28:58.173Z,458.00
2023-01-29T14:29:58.222Z,457.00
2023-01-29T14:30:58.332Z,452.00
2023-01-29T14:31:58.474Z,449.00
2023-01-29T14:32:58.394Z,446.00
2023-01-29T14:33:58.458Z,446.00
2023-01-29T14:34:58.518Z,449.00
2023-01-29T14:35:58.539Z,450.00
2023-01-29T14:51:59.451Z,456.00
2023-01-29T14:54:59.637Z,454.00
2023-01-29T14:55:59.686Z,451.00
2023-01-29T14:56:59.728Z,452.00
2023-01-29T14:57:59.757Z,451.00
2023-01-29T14:58:59.825Z,452.00
2023-01-29T14:59:59.912Z,453.00
2023-01-29T15:01:00.034Z,454.00
2023-01-29T15:01:59.988Z,451.00
2023-01-29T15:03:02.258Z,451.00
2023-01-29T15:04:00.120Z,451.00
2023-01-29T15:05:00.176Z,453.00
2023-01-29T15:06:00.211Z,453.00
2023-01-29T15:07:00.271Z,453.00
2023-01-29T15:08:00.333Z,453.00
2023-01-29T15:09:00.384Z,456.00
2023-01-29T15:10:21.017Z,457.00
2023-01-29T15:11:01.455Z,457.00
2023-01-29T15:12:00.464Z,456.00
2023-01-29T15:13:00.497Z,456.00
2023-01-29T15:14:00.457Z,456.00
2023-01-29T15:15:00.589Z,455.00
2023-01-29T15:16:00.512Z,454.00
2023-01-29T15:17:00.502Z,454.00
2023-01-29T15:18:00.517Z,456.00
2023-01-29T15:19:00.533Z,455.00
2023-01-29T15:20:00.596Z,452.00
2023-01-29T15:23:00.665Z,448.00
2023-01-29T15:26:00.840Z,455.00
2023-01-29T15:27:00.898Z,455.00
2023-01-29T15:28:01.112Z,453.00
2023-01-29T15:29:05.017Z,452.00
2023-01-29T15:30:01.116Z,454.00
2023-01-29T15:31:01.137Z,455.00
2023-01-29T15:32:01.085Z,454.00
2023-01-29T15:33:01.097Z,454.00
2023-01-29T15:34:01.096Z,456.00
2023-01-29T15:35:01.073Z,455.00
2023-01-29T15:36:08.827Z,451.00
2023-01-29T15:37:02.143Z,451.00
2023-01-29T15:38:01.119Z,452.00
2023-01-29T15:39:01.131Z,454.00
2023-01-29T15:40:01.172Z,453.00
2023-01-29T15:41:01.142Z,453.00
2023-01-29T15:42:01.154Z,452.00
2023-01-29T15:43:01.143Z,452.00
2023-01-29T15:44:01.162Z,454.00
2023-01-29T15:45:01.165Z,453.00
2023-01-29T15:46:01.183Z,452.00
2023-01-29T15:47:01.262Z,453.00
2023-01-29T15:48:01.225Z,453.00
2023-01-29T15:49:01.249Z,453.00
2023-01-29T15:50:01.397Z,452.00
2023-01-29T15:51:01.378Z,453.00
2023-01-29T15:52:01.419Z,454.00
2023-01-29T15:53:01.479Z,455.00
2023-01-29T15:54:01.546Z,456.00
2023-01-29T15:55:01.614Z,455.00
2023-01-29T15:56:01.673Z,454.00
2023-01-29T15:57:01.710Z,455.00
2023-01-29T15:58:01.780Z,456.00
2023-01-29T15:59:02.859Z,456.00
2023-01-29T16:00:01.919Z,455.00
2023-01-29T16:01:01.939Z,455.00
2023-01-29T16:02:02.823Z,458.00
2023-01-29T16:03:02.060Z,459.00
2023-01-29T16:04:02.117Z,457.00
2023-01-29T16:05:02.186Z,456.00
2023-01-29T16:06:02.237Z,455.00
2023-01-29T16:07:02.288Z,456.00
2023-01-29T16:08:02.390Z,454.00
2023-01-29T16:09:02.400Z,453.00
2023-01-29T16:10:02.525Z,453.00
2023-01-29T16:11:02.530Z,453.00
2023-01-29T16:12:02.581Z,453.00
2023-01-29T16:13:02.621Z,451.00
2023-01-29T16:14:02.663Z,452.00
2023-01-29T16:15:02.761Z,452.00
2023-01-29T16:16:02.821Z,453.00
2023-01-29T16:17:02.928Z,454.00
2023-01-29T16:18:02.909Z,454.00
2023-01-29T16:19:02.945Z,454.00
2023-01-29T16:20:03.037Z,453.00
2023-01-29T16:21:03.106Z,451.00
2023-01-29T16:22:03.152Z,450.00
2023-01-29T16:23:03.213Z,448.00
2023-01-29T16:24:03.221Z,450.00
2023-01-29T16:25:03.307Z,451.00
2023-01-29T16:26:03.370Z,449.00
2023-01-29T16:27:03.416Z,449.00
2023-01-29T16:28:03.489Z,448.00
2023-01-29T16:29:03.536Z,447.00
2023-01-29T16:30:03.597Z,446.00
2023-01-29T16:31:05.428Z,448.00
2023-01-29T16:32:03.763Z,448.00
2023-01-29T16:33:03.722Z,448.00
2023-01-29T16:34:03.800Z,447.00
2023-01-29T16:35:03.829Z,448.00
2023-01-29T16:36:03.918Z,448.00
2023-01-29T16:37:03.952Z,447.00
2023-01-29T16:38:04.057Z,449.00
2023-01-29T16:39:04.072Z,449.00
2023-01-29T16:40:04.153Z,450.00
2023-01-29T16:41:04.189Z,449.00
2023-01-29T16:42:04.279Z,449.00
2023-01-29T16:43:04.309Z,451.00
2023-01-29T16:44:04.396Z,452.00
2023-01-29T16:45:04.462Z,453.00
2023-01-29T16:46:04.523Z,453.00
2023-01-29T16:47:04.532Z,452.00
2023-01-29T16:48:04.623Z,453.00
2023-01-29T16:49:04.675Z,454.00
2023-01-29T16:50:04.738Z,454.00
2023-01-29T16:51:04.824Z,453.00
2023-01-29T16:52:04.827Z,452.00
2023-01-29T16:53:04.892Z,454.00
2023-01-29T16:54:04.958Z,451.00
2023-01-29T16:55:05.039Z,451.00
2023-01-29T16:56:05.081Z,450.00
2023-01-29T16:57:05.119Z,450.00
2023-01-29T16:58:05.828Z,452.00
2023-01-29T16:59:05.274Z,450.00
2023-01-29T17:00:05.431Z,450.00
2023-01-29T17:01:05.443Z,450.00
2023-01-29T17:02:05.447Z,449.00
2023-01-29T17:03:05.510Z,449.00
2023-01-29T17:04:05.608Z,450.00
2023-01-29T17:05:05.643Z,448.00
2023-01-29T17:06:05.673Z,448.00
2023-01-29T17:07:05.759Z,448.00
2023-01-29T17:08:05.837Z,446.00
2023-01-29T17:09:05.846Z,447.00
2023-01-29T17:10:05.933Z,449.00
2023-01-29T17:11:05.995Z,449.00
2023-01-29T17:12:06.026Z,454.00
2023-01-29T17:13:06.064Z,456.00
2023-01-29T17:14:06.130Z,459.00
2023-01-29T17:15:06.211Z,457.00
2023-01-29T17:16:06.274Z,458.00
2023-01-29T17:17:06.313Z,459.00
2023-01-29T17:18:06.312Z,458.00
2023-01-29T17:19:06.424Z,458.00
2023-01-29T17:20:06.472Z,457.00
2023-01-29T17:21:06.542Z,455.00
2023-01-29T17:22:06.583Z,454.00
2023-01-29T17:23:06.649Z,455.00
2023-01-29T17:24:06.682Z,456.00
2023-01-29T17:25:06.714Z,458.00
2023-01-29T17:26:06.740Z,458.00
2023-01-29T17:27:06.845Z,457.00
2023-01-29T17:28:06.865Z,457.00
2023-01-29T17:29:06.932Z,457.00
2023-01-29T17:30:07.000Z,457.00
2023-01-29T17:31:07.456Z,457.00
2023-01-29T17:32:07.107Z,457.00
2023-01-29T17:33:07.124Z,457.00
2023-01-29T17:34:07.193Z,457.00
2023-01-29T17:35:07.268Z,456.00
2023-01-29T17:36:07.313Z,456.00
2023-01-29T17:37:07.376Z,454.00
2023-01-29T17:38:09.395Z,455.00
2023-01-29T17:39:08.403Z,454.00
2023-01-29T17:40:07.411Z,455.00
2023-01-29T17:41:07.436Z,457.00